Aérodrome :







RETROUVEZ-NOUS SUR...

 
LOGIN :

S'inscrire | Disclaimer

   EN    FR    IT 

 









Légende :    VFR   VFR Marginal   IFR   IFR Intensif   IFR Très Intensif
Visi : 
Plafond : 
>= 8 km
>= 3000ft
5 à 8 km
1000 à 3000 ft
1500m à 5 km
500 à 1000 ft
800 à 1500m
200 à 500 ft
< 800m
< 200 ft
Symboles :   Orages  Brouillard  Fortes neiges  Fortes précipitations  Vent > 20 kt






- Altitude de l'aérodrome : 550 ft
- Code IATA : YOY


CYOY - C J.H.L.(Joe) Lecomte) Heliport

DERNIER METAR :
  • 261600Z 14003KT 15SM SCT190 BKN250 00/M07 A3010 RMK AC4CI2 DA-1286FT SLP202

METARs EXPIRÉS :
  • 261500Z 12002KT 15SM FEW190 BKN250 M01/M09 A3012 RMK AC2CI5 DA-1506FT FST STFD OBS SLP210

TAF AMD TAF CYOY
Valide du 26 à 16h jusqu'au 27 à 00h UTC


261604Z 2616/2624 VRB03KT P6SM SCT130 BKN250
BECMG 2616/2618 10008KT
FM262100 09012KT P6SM SCT040 BKN080
BECMG 2622/2624 OVC040 RMK NXT FCST BY 261800Z



MET'MAP, la Météo Aéronautique d'un coup d'oeil ! - Copyright ORBIFLY Décembre 2007 - Disclaimer

ORBIFLY MET'MAP TEAM :

Programmation & Développement : Alexandra Zaïnal
Sur une idée originale de : Baudouin d'Aumeries
Assistance à la programmation : Marc-Olivier Méhu
Soutien technique & logistique : Manuel Goepfert

Contact : metmap@orbifly.com




SOURCES & CREDITS :

   NOAA